createdAt,value
2022-07-30T09:53:54.365Z,12.43
2022-07-30T09:56:25.412Z,11.82
2022-07-30T09:58:52.364Z,11.40
2022-07-30T10:01:19.096Z,10.35
2022-07-30T10:03:46.619Z,10.00
2022-07-30T10:06:14.767Z,11.60
2022-07-30T10:08:45.975Z,9.95
2022-07-30T10:11:15.396Z,9.40
2022-07-30T10:13:45.656Z,12.52
2022-07-30T10:16:12.430Z,9.85
2022-07-30T10:18:41.817Z,12.20
2022-07-30T10:21:08.995Z,9.57
2022-07-30T10:23:36.328Z,9.98
2022-07-30T10:26:12.978Z,9.68
2022-07-30T10:28:44.526Z,10.30
2022-07-30T10:31:47.269Z,12.23
2022-07-30T10:33:58.622Z,9.80
2022-07-30T10:36:26.175Z,11.85
2022-07-30T10:38:54.661Z,8.25
2022-07-30T10:41:44.113Z,10.57
2022-07-30T10:44:44.235Z,10.53
2022-07-30T10:47:14.232Z,8.43
2022-07-30T10:50:06.029Z,9.93
2022-07-30T10:52:47.148Z,10.32
2022-07-30T10:55:15.854Z,10.95
2022-07-30T10:58:03.089Z,9.75
2022-07-30T11:00:33.808Z,11.63
2022-07-30T11:03:18.739Z,10.07
2022-07-30T11:05:47.699Z,12.73
2022-07-30T11:08:37.837Z,11.85
2022-07-30T11:12:02.350Z,10.90
2022-07-30T11:14:57.685Z,10.30
2022-07-30T11:17:24.321Z,9.95
2022-07-30T11:20:11.929Z,9.95
2022-07-30T11:22:40.172Z,10.07
2022-07-30T11:25:13.171Z,9.23
2022-07-30T11:27:41.785Z,11.20
2022-07-30T11:30:34.474Z,12.10
2022-07-30T11:33:22.235Z,10.45
2022-07-30T11:36:11.717Z,10.27
2022-07-30T11:38:52.662Z,10.98
2022-07-30T11:41:19.234Z,12.53
2022-07-30T11:43:45.804Z,9.48
2022-07-30T11:46:16.355Z,8.98
2022-07-30T11:48:55.365Z,10.65
2022-07-30T11:51:22.062Z,9.82
2022-07-30T11:54:00.586Z,10.47
2022-07-30T11:56:27.189Z,10.00
2022-07-30T11:59:04.989Z,9.98
2022-07-30T12:01:33.698Z,9.80
2022-07-30T12:04:03.522Z,10.20
2022-07-30T12:06:30.222Z,8.57
2022-07-30T12:08:58.869Z,9.68
2022-07-30T12:11:25.999Z,8.38
2022-07-30T12:13:56.524Z,10.90
2022-07-30T12:16:23.118Z,9.38
2022-07-30T12:18:51.216Z,11.87
2022-07-30T12:21:18.579Z,10.13
2022-07-30T12:23:54.504Z,9.70
2022-07-30T12:26:22.274Z,9.90
2022-07-30T12:28:49.382Z,10.35
2022-07-30T12:31:16.665Z,9.90
2022-07-30T12:33:43.400Z,9.68
2022-07-30T12:36:24.320Z,9.05
2022-07-30T12:38:50.881Z,9.75
2022-07-30T12:41:17.419Z,8.30
2022-07-30T12:43:46.765Z,8.93
2022-07-30T12:46:15.624Z,9.02
2022-07-30T12:48:53.718Z,9.43
2022-07-30T12:51:23.670Z,8.63
2022-07-30T12:53:50.844Z,11.05
2022-07-30T12:56:19.760Z,8.47
2022-07-30T12:58:46.578Z,10.38
2022-07-30T13:01:16.035Z,8.95
2022-07-30T13:03:42.970Z,8.63
2022-07-30T13:06:17.740Z,9.10
2022-07-30T13:08:48.128Z,9.83
2022-07-30T13:11:15.547Z,9.33
2022-07-30T13:13:42.231Z,7.93
2022-07-30T13:16:08.966Z,8.57
2022-07-30T13:18:36.299Z,10.75
2022-07-30T13:21:04.421Z,8.50
2022-07-30T13:23:31.037Z,8.87
2022-07-30T13:25:59.302Z,9.77
2022-07-30T13:28:26.524Z,8.90
2022-07-30T13:30:53.167Z,9.63
2022-07-30T13:33:19.929Z,10.73
2022-07-30T13:35:46.517Z,6.77
2022-07-30T13:38:13.073Z,8.95
2022-07-30T13:40:39.936Z,8.07
2022-07-30T13:43:08.041Z,9.82
2022-07-30T13:45:35.626Z,10.18
2022-07-30T13:48:02.824Z,8.17
2022-07-30T13:50:29.895Z,9.93
2022-07-30T13:53:15.541Z,9.43
2022-07-30T13:55:42.790Z,11.25
2022-07-30T13:58:10.811Z,8.85
2022-07-30T14:00:37.479Z,7.13
2022-07-30T14:03:17.190Z,9.25
2022-07-30T14:05:43.932Z,7.32
2022-07-30T14:08:11.762Z,7.38
2022-07-30T14:10:39.125Z,7.43
2022-07-30T14:13:07.615Z,7.57
2022-07-30T14:15:35.674Z,8.52
2022-07-30T14:18:02.562Z,9.48
2022-07-30T14:20:29.608Z,6.90
2022-07-30T14:22:56.254Z,8.93
2022-07-30T14:25:22.888Z,7.67
2022-07-30T14:27:49.415Z,6.78
2022-07-30T14:30:16.015Z,8.10
2022-07-30T14:32:45.004Z,8.93
2022-07-30T14:35:11.995Z,7.90
2022-07-30T14:37:39.707Z,8.27
2022-07-30T14:40:09.311Z,6.80
2022-07-30T14:42:35.856Z,8.90
2022-07-30T14:45:02.618Z,8.90
2022-07-30T14:47:29.156Z,8.10
2022-07-30T14:49:57.075Z,10.37
2022-07-30T14:52:23.650Z,8.45
2022-07-30T14:54:50.163Z,7.72
2022-07-30T14:57:16.696Z,10.63
2022-07-30T14:59:43.287Z,9.60
2022-07-30T15:02:10.695Z,8.67
2022-07-30T15:04:37.622Z,8.73
2022-07-30T15:07:05.540Z,8.07
2022-07-30T15:09:33.546Z,7.65
2022-07-30T15:12:08.640Z,8.95
2022-07-30T15:14:36.494Z,10.37
2022-07-30T15:17:04.495Z,9.95
2022-07-30T15:19:31.839Z,11.93
2022-07-30T15:21:58.983Z,8.18
2022-07-30T15:24:27.080Z,8.75
2022-07-30T15:26:53.664Z,8.57
2022-07-30T15:29:20.202Z,8.65
2022-07-30T15:31:46.766Z,8.40
2022-07-30T15:34:13.339Z,8.32
2022-07-30T15:36:39.938Z,8.50
2022-07-30T15:39:06.610Z,8.77
2022-07-30T15:41:34.565Z,8.23
2022-07-30T15:44:01.128Z,7.20
2022-07-30T15:46:27.796Z,8.23
2022-07-30T15:48:54.407Z,9.35
2022-07-30T15:51:21.190Z,7.70
2022-07-30T15:53:47.761Z,9.52
2022-07-30T15:56:14.396Z,9.93
2022-07-30T15:58:43.644Z,7.93
2022-07-30T16:01:10.508Z,9.60
2022-07-30T16:03:37.171Z,8.50
2022-07-30T16:06:03.871Z,9.02
2022-07-30T16:08:30.423Z,9.82
2022-07-30T16:10:57.975Z,8.35
2022-07-30T16:13:24.515Z,8.02
2022-07-30T16:15:52.421Z,7.60
2022-07-30T16:18:18.938Z,8.45
2022-07-30T16:20:45.604Z,9.98
2022-07-30T16:23:15.008Z,9.60
2022-07-30T16:25:44.774Z,10.68
2022-07-30T16:28:11.332Z,9.17
2022-07-30T16:30:50.397Z,10.73
2022-07-30T16:33:20.224Z,8.70
2022-07-30T16:35:49.140Z,8.88
2022-07-30T16:38:18.050Z,9.63
2022-07-30T16:40:44.799Z,11.25
2022-07-30T16:43:11.486Z,7.83
2022-07-30T16:45:38.019Z,9.40
2022-07-30T16:48:05.388Z,11.15
2022-07-30T16:50:33.306Z,10.88
2022-07-30T16:52:59.892Z,8.65
2022-07-30T16:55:26.479Z,10.33
2022-07-30T16:57:53.034Z,8.45
2022-07-30T17:00:19.596Z,10.80
2022-07-30T17:02:46.145Z,9.75
2022-07-30T17:05:13.986Z,9.07
2022-07-30T17:07:41.971Z,8.67
2022-07-30T17:10:11.061Z,8.20
2022-07-30T17:12:37.852Z,9.35
2022-07-30T17:15:05.348Z,8.10
2022-07-30T17:17:31.939Z,8.68
2022-07-30T17:19:58.566Z,9.70
2022-07-30T17:22:25.260Z,9.97
2022-07-30T17:24:53.162Z,8.80
2022-07-30T17:27:21.560Z,8.82
2022-07-30T17:29:50.560Z,8.73
2022-07-30T17:32:17.798Z,9.60
2022-07-30T17:34:44.351Z,9.23
2022-07-30T17:37:10.902Z,9.57
2022-07-30T17:40:27.387Z,8.98
2022-07-30T17:42:25.375Z,9.52
2022-07-30T17:44:52.062Z,9.48
2022-07-30T17:47:18.667Z,8.33
2022-07-30T17:49:46.325Z,9.95
2022-07-30T17:52:13.030Z,9.75
2022-07-30T17:54:39.958Z,11.00
2022-07-30T17:57:06.544Z,8.32
2022-07-30T17:59:34.471Z,8.30
2022-07-30T18:02:01.397Z,9.88
2022-07-30T18:04:28.118Z,9.25
2022-07-30T18:06:54.679Z,10.07
2022-07-30T18:09:21.266Z,9.63
2022-07-30T18:11:47.848Z,9.30
2022-07-30T18:14:14.466Z,9.35
2022-07-30T18:16:42.441Z,10.23
2022-07-30T18:19:08.995Z,8.20
2022-07-30T18:21:49.557Z,8.13
2022-07-30T18:24:16.140Z,12.27
2022-07-30T18:26:42.876Z,9.73
2022-07-30T18:29:13.760Z,7.97
2022-07-30T18:31:41.992Z,9.32
2022-07-30T18:34:08.564Z,10.20
2022-07-30T18:36:35.135Z,10.02
2022-07-30T18:39:01.671Z,10.00
2022-07-30T18:41:28.303Z,8.07
2022-07-30T18:43:54.843Z,9.57
2022-07-30T18:46:21.406Z,12.20
2022-07-30T18:48:49.338Z,11.50
2022-07-30T18:51:16.335Z,10.00
2022-07-30T18:53:42.919Z,9.20
2022-07-30T18:56:09.512Z,8.77
2022-07-30T18:58:36.105Z,9.45
2022-07-30T19:01:02.851Z,11.13
2022-07-30T19:03:29.443Z,9.27
2022-07-30T19:05:57.367Z,9.43
2022-07-30T19:08:23.890Z,10.23
2022-07-30T19:10:50.462Z,9.13
2022-07-30T19:13:17.078Z,10.05
2022-07-30T19:15:43.623Z,8.97
2022-07-30T19:18:10.155Z,11.57
2022-07-30T19:20:36.740Z,9.77
2022-07-30T19:23:06.820Z,10.07
2022-07-30T19:25:34.655Z,10.02
2022-07-30T19:28:01.790Z,9.73
2022-07-30T19:30:29.153Z,12.13
2022-07-30T19:33:01.750Z,10.48
2022-07-30T19:35:28.313Z,9.85
2022-07-30T19:37:54.859Z,11.30
2022-07-30T19:40:22.841Z,10.57
2022-07-30T19:42:55.936Z,12.27
2022-07-30T19:45:23.282Z,10.63
2022-07-30T19:47:49.993Z,10.23
2022-07-30T19:50:16.598Z,9.40
2022-07-30T19:52:51.603Z,11.18
2022-07-30T19:55:35.437Z,10.15
2022-07-30T19:58:04.367Z,11.03
2022-07-30T20:00:31.119Z,11.50
2022-07-30T20:03:02.383Z,12.02
2022-07-30T20:05:30.546Z,10.88
2022-07-30T20:07:57.143Z,10.93
2022-07-30T20:10:23.836Z,12.47
2022-07-30T20:12:50.395Z,12.40
2022-07-30T20:15:18.301Z,11.57
2022-07-30T20:17:46.439Z,12.48
2022-07-30T20:20:13.600Z,11.50
2022-07-30T20:22:40.533Z,15.17
2022-07-30T20:25:08.929Z,14.73
2022-07-30T20:27:38.417Z,13.75
2022-07-30T20:30:07.534Z,14.90
2022-07-30T20:32:35.915Z,13.02
2022-07-30T20:35:02.965Z,15.00
2022-07-30T20:37:29.841Z,15.97
2022-07-30T20:39:56.720Z,15.80
2022-07-30T20:42:23.773Z,14.10
2022-07-30T20:44:50.984Z,13.23
2022-07-30T20:47:17.755Z,13.85
2022-07-30T20:50:03.229Z,11.63
2022-07-30T20:52:30.123Z,12.07
2022-07-30T20:54:56.742Z,13.82
2022-07-30T20:57:44.451Z,13.15
2022-07-30T21:00:12.848Z,12.70
2022-07-30T21:02:39.400Z,12.50
2022-07-30T21:05:08.206Z,11.87
2022-07-30T21:07:40.455Z,11.77
2022-07-30T21:10:11.492Z,14.00
2022-07-30T21:12:38.927Z,13.55
2022-07-30T21:15:11.845Z,12.93
2022-07-30T21:17:50.794Z,11.33
2022-07-30T21:20:26.619Z,13.68
2022-07-30T21:22:55.116Z,11.38
2022-07-30T21:25:23.553Z,11.35
2022-07-30T21:28:08.578Z,13.73
2022-07-30T21:30:45.084Z,12.83
2022-07-30T21:33:11.966Z,13.03
2022-07-30T21:35:40.110Z,11.57
2022-07-30T21:38:07.895Z,12.20
2022-07-30T21:40:35.455Z,11.68
2022-07-30T21:43:03.772Z,13.65
2022-07-30T21:45:38.753Z,11.93
2022-07-30T21:48:06.539Z,13.73
2022-07-30T21:50:33.761Z,12.57
2022-07-30T21:53:01.681Z,13.82
2022-07-30T21:55:33.565Z,15.32
2022-07-30T21:58:24.058Z,13.00
2022-07-30T22:01:01.539Z,13.83
2022-07-30T22:04:03.857Z,13.80
2022-07-30T22:06:29.599Z,12.32
2022-07-30T22:08:57.889Z,13.73
2022-07-30T22:11:24.609Z,12.00
2022-07-30T22:14:09.484Z,12.63
2022-07-30T22:16:36.226Z,12.47
2022-07-30T22:19:03.593Z,12.68
2022-07-30T22:21:30.509Z,12.65
2022-07-30T22:23:59.840Z,12.27
2022-07-30T22:26:26.816Z,11.00
2022-07-30T22:28:54.308Z,12.77
2022-07-30T22:31:21.397Z,12.27
2022-07-30T22:36:35.115Z,13.30
2022-07-30T22:39:03.102Z,11.07
2022-07-30T22:41:35.526Z,13.40
2022-07-30T22:44:02.059Z,11.40
2022-07-30T22:46:30.754Z,15.30
2022-07-30T22:48:57.878Z,15.73
2022-07-30T22:51:26.255Z,13.75
2022-07-30T22:54:14.212Z,13.95
2022-07-30T22:56:41.502Z,13.60
2022-07-30T22:59:08.223Z,12.63
2022-07-30T23:01:34.768Z,13.03
2022-07-30T23:04:01.701Z,12.80
2022-07-30T23:09:16.422Z,13.35
2022-07-30T23:11:42.985Z,11.85
2022-07-30T23:12:30.937Z,13.65
2022-07-30T23:12:31.607Z,13.90
2022-07-30T23:14:10.875Z,12.03
2022-07-30T23:16:38.254Z,14.20
2022-07-30T23:19:05.740Z,12.93
2022-07-30T23:21:32.509Z,11.98
2022-07-30T23:23:59.220Z,12.98
2022-07-30T23:26:27.120Z,13.05
2022-07-30T23:28:53.676Z,14.68
2022-07-30T23:31:22.962Z,11.77
2022-07-30T23:33:53.046Z,12.43
2022-07-30T23:36:19.578Z,13.23
2022-07-30T23:38:46.279Z,12.35
2022-07-30T23:41:12.930Z,12.07
2022-07-30T23:43:40.832Z,12.97
2022-07-30T23:46:10.966Z,11.77
2022-07-30T23:48:37.820Z,12.65
2022-07-30T23:51:04.352Z,11.52
2022-07-30T23:53:30.884Z,11.98
2022-07-30T23:55:57.451Z,13.27
2022-07-30T23:58:23.991Z,13.13
